Terminal Aerodrome Forecast
Issued by NWS Charleston, WV

Current Version | Previous Version | Text Only | Print | Product List | Glossary Off
Versions: 1 2 3 4 5 6 7 8 9 10 11 12 13 14 15 16 17 18 19

000
FTUS41 KRLX 191752 CCA
TAFEKN
TAF COR
KEKN 191752Z 1918/2018 30015G22KT 6SM -SHSN BKN015
      TEMPO 1918/1920 2SM -SHSN
     FM192300 31015G22KT P6SM BKN040
     FM200800 31006KT 6SM BR SCT030=

USA.gov is the U.S. government's official web portal to all federal, state and local government web resources and services.